sensor_id;sensor_type;location;lat;lon;timestamp;pressure;altitude;pressure_sealevel;temperature;humidity
58473;BME280;44775;51.564;5.460;2024-03-25T00:00:32;100516.72;;;3.38;100.00
58473;BME280;44775;51.564;5.460;2024-03-25T00:02:57;100511.22;;;3.30;100.00
58473;BME280;44775;51.564;5.460;2024-03-25T00:05:22;100511.47;;;3.27;100.00
58473;BME280;44775;51.564;5.460;2024-03-25T00:07:50;100508.78;;;3.17;100.00
58473;BME280;44775;51.564;5.460;2024-03-25T00:10:16;100513.63;;;3.12;100.00
58473;BME280;44775;51.564;5.460;2024-03-25T00:12:41;100514.97;;;3.06;100.00
58473;BME280;44775;51.564;5.460;2024-03-25T00:15:06;100507.69;;;2.99;100.00
58473;BME280;44775;51.564;5.460;2024-03-25T00:17:32;100503.25;;;2.99;100.00
58473;BME280;44775;51.564;5.460;2024-03-25T00:19:57;100511.66;;;2.93;100.00
58473;BME280;44775;51.564;5.460;2024-03-25T00:22:23;100507.75;;;2.88;100.00
58473;BME280;44775;51.564;5.460;2024-03-25T00:24:50;100504.72;;;2.92;100.00
58473;BME280;44775;51.564;5.460;2024-03-25T00:27:16;100509.09;;;2.82;100.00
58473;BME280;44775;51.564;5.460;2024-03-25T00:29:42;100505.16;;;2.76;100.00
58473;BME280;44775;51.564;5.460;2024-03-25T00:32:07;100495.00;;;2.72;100.00
58473;BME280;44775;51.564;5.460;2024-03-25T00:34:32;100494.25;;;2.70;100.00
58473;BME280;44775;51.564;5.460;2024-03-25T00:36:58;100487.31;;;2.69;100.00
58473;BME280;44775;51.564;5.460;2024-03-25T00:39:23;100486.41;;;2.58;100.00
58473;BME280;44775;51.564;5.460;2024-03-25T00:41:49;100501.06;;;2.51;100.00
58473;BME280;44775;51.564;5.460;2024-03-25T00:44:14;100487.28;;;2.48;100.00
58473;BME280;44775;51.564;5.460;2024-03-25T00:46:39;100492.81;;;2.45;100.00
58473;BME280;44775;51.564;5.460;2024-03-25T00:49:06;100495.59;;;2.43;100.00
58473;BME280;44775;51.564;5.460;2024-03-25T00:51:31;100498.72;;;2.37;100.00
58473;BME280;44775;51.564;5.460;2024-03-25T00:53:58;100494.38;;;2.36;100.00
58473;BME280;44775;51.564;5.460;2024-03-25T00:56:23;100492.03;;;2.33;100.00
58473;BME280;44775;51.564;5.460;2024-03-25T00:58:49;100492.50;;;2.27;100.00
58473;BME280;44775;51.564;5.460;2024-03-25T01:01:14;100498.47;;;2.29;100.00
58473;BME280;44775;51.564;5.460;2024-03-25T01:03:39;100502.91;;;2.28;100.00
58473;BME280;44775;51.564;5.460;2024-03-25T01:06:04;100502.09;;;2.28;100.00
58473;BME280;44775;51.564;5.460;2024-03-25T01:08:29;100503.31;;;2.24;100.00
58473;BME280;44775;51.564;5.460;2024-03-25T01:10:55;100510.97;;;2.27;100.00
58473;BME280;44775;51.564;5.460;2024-03-25T01:13:20;100510.72;;;2.19;100.00
58473;BME280;44775;51.564;5.460;2024-03-25T01:15:45;100513.13;;;2.22;100.00
58473;BME280;44775;51.564;5.460;2024-03-25T01:18:11;100507.84;;;2.22;100.00
58473;BME280;44775;51.564;5.460;2024-03-25T01:20:36;100510.50;;;2.22;100.00
58473;BME280;44775;51.564;5.460;2024-03-25T01:23:01;100498.03;;;2.24;100.00
58473;BME280;44775;51.564;5.460;2024-03-25T01:25:26;100496.63;;;2.20;100.00
58473;BME280;44775;51.564;5.460;2024-03-25T01:27:51;100497.53;;;2.19;100.00
58473;BME280;44775;51.564;5.460;2024-03-25T01:30:17;100511.69;;;2.18;100.00
58473;BME280;44775;51.564;5.460;2024-03-25T01:32:43;100514.34;;;2.18;100.00
58473;BME280;44775;51.564;5.460;2024-03-25T01:35:09;100515.31;;;2.17;100.00
58473;BME280;44775;51.564;5.460;2024-03-25T01:37:34;100519.00;;;2.25;100.00
58473;BME280;44775;51.564;5.460;2024-03-25T01:39:59;100521.41;;;2.17;100.00
58473;BME280;44775;51.564;5.460;2024-03-25T01:42:25;100512.53;;;2.18;100.00
58473;BME280;44775;51.564;5.460;2024-03-25T01:44:50;100510.13;;;2.15;100.00
58473;BME280;44775;51.564;5.460;2024-03-25T01:47:15;100509.91;;;2.18;100.00
58473;BME280;44775;51.564;5.460;2024-03-25T01:49:41;100508.34;;;2.16;100.00
58473;BME280;44775;51.564;5.460;2024-03-25T01:52:06;100502.38;;;2.13;100.00
58473;BME280;44775;51.564;5.460;2024-03-25T01:54:32;100493.63;;;2.13;100.00
58473;BME280;44775;51.564;5.460;2024-03-25T01:56:57;100495.53;;;2.11;100.00
58473;BME280;44775;51.564;5.460;2024-03-25T01:59:23;100493.97;;;2.08;100.00
58473;BME280;44775;51.564;5.460;2024-03-25T02:01:49;100492.19;;;2.09;100.00
58473;BME280;44775;51.564;5.460;2024-03-25T02:04:15;100502.72;;;2.09;100.00
58473;BME280;44775;51.564;5.460;2024-03-25T02:06:40;100500.81;;;2.11;100.00
58473;BME280;44775;51.564;5.460;2024-03-25T02:09:06;100499.72;;;2.13;100.00
58473;BME280;44775;51.564;5.460;2024-03-25T02:11:32;100506.31;;;2.08;100.00
58473;BME280;44775;51.564;5.460;2024-03-25T02:13:57;100501.06;;;2.08;100.00
58473;BME280;44775;51.564;5.460;2024-03-25T02:16:22;100510.75;;;2.07;100.00
58473;BME280;44775;51.564;5.460;2024-03-25T02:18:47;100502.13;;;2.05;100.00
58473;BME280;44775;51.564;5.460;2024-03-25T02:21:13;100504.53;;;2.08;100.00
58473;BME280;44775;51.564;5.460;2024-03-25T02:23:38;100505.97;;;2.01;100.00
58473;BME280;44775;51.564;5.460;2024-03-25T02:26:04;100504.75;;;2.05;100.00
58473;BME280;44775;51.564;5.460;2024-03-25T02:28:29;100507.41;;;2.05;100.00
58473;BME280;44775;51.564;5.460;2024-03-25T02:30:54;100507.63;;;2.02;100.00
58473;BME280;44775;51.564;5.460;2024-03-25T02:33:19;100505.28;;;1.99;100.00
58473;BME280;44775;51.564;5.460;2024-03-25T02:35:44;100501.66;;;2.00;100.00
58473;BME280;44775;51.564;5.460;2024-03-25T02:38:10;100494.47;;;2.13;100.00
58473;BME280;44775;51.564;5.460;2024-03-25T02:40:35;100493.28;;;2.06;100.00
58473;BME280;44775;51.564;5.460;2024-03-25T02:43:01;100487.03;;;2.07;100.00
58473;BME280;44775;51.564;5.460;2024-03-25T02:45:27;100484.06;;;2.01;100.00
58473;BME280;44775;51.564;5.460;2024-03-25T02:47:52;100483.91;;;2.02;100.00
58473;BME280;44775;51.564;5.460;2024-03-25T02:50:17;100475.56;;;1.97;100.00
58473;BME280;44775;51.564;5.460;2024-03-25T02:52:43;100476.53;;;1.96;100.00
58473;BME280;44775;51.564;5.460;2024-03-25T02:55:08;100484.69;;;1.93;100.00
58473;BME280;44775;51.564;5.460;2024-03-25T02:57:33;100476.78;;;1.93;100.00
58473;BME280;44775;51.564;5.460;2024-03-25T02:59:58;100475.22;;;1.91;100.00
58473;BME280;44775;51.564;5.460;2024-03-25T03:02:24;100476.53;;;1.96;100.00
58473;BME280;44775;51.564;5.460;2024-03-25T03:04:49;100472.19;;;1.95;100.00
58473;BME280;44775;51.564;5.460;2024-03-25T03:07:14;100471.84;;;2.00;100.00
58473;BME280;44775;51.564;5.460;2024-03-25T03:09:39;100473.16;;;1.94;100.00
58473;BME280;44775;51.564;5.460;2024-03-25T03:12:05;100470.66;;;1.93;100.00
58473;BME280;44775;51.564;5.460;2024-03-25T03:14:30;100467.44;;;1.89;100.00
58473;BME280;44775;51.564;5.460;2024-03-25T03:16:55;100463.09;;;1.88;100.00
58473;BME280;44775;51.564;5.460;2024-03-25T03:19:24;100460.59;;;1.86;100.00
58473;BME280;44775;51.564;5.460;2024-03-25T03:21:49;100464.06;;;1.87;100.00
58473;BME280;44775;51.564;5.460;2024-03-25T03:24:15;100460.22;;;1.91;100.00
58473;BME280;44775;51.564;5.460;2024-03-25T03:26:40;100457.59;;;1.91;100.00
58473;BME280;44775;51.564;5.460;2024-03-25T03:29:05;100450.41;;;1.93;100.00
58473;BME280;44775;51.564;5.460;2024-03-25T03:31:30;100447.69;;;1.83;100.00
58473;BME280;44775;51.564;5.460;2024-03-25T03:33:55;100446.13;;;1.81;100.00
58473;BME280;44775;51.564;5.460;2024-03-25T03:36:21;100448.88;;;1.79;100.00
58473;BME280;44775;51.564;5.460;2024-03-25T03:38:47;100449.97;;;1.77;100.00
58473;BME280;44775;51.564;5.460;2024-03-25T03:41:12;100442.28;;;1.74;100.00
58473;BME280;44775;51.564;5.460;2024-03-25T03:43:37;100444.19;;;1.72;100.00
58473;BME280;44775;51.564;5.460;2024-03-25T03:46:03;100452.34;;;1.80;100.00
58473;BME280;44775;51.564;5.460;2024-03-25T03:48:28;100461.56;;;1.74;100.00
58473;BME280;44775;51.564;5.460;2024-03-25T03:50:54;100452.97;;;1.72;100.00
58473;BME280;44775;51.564;5.460;2024-03-25T03:53:19;100465.16;;;1.73;100.00
58473;BME280;44775;51.564;5.460;2024-03-25T03:55:57;100462.88;;;1.69;100.00
58473;BME280;44775;51.564;5.460;2024-03-25T03:58:23;100458.81;;;1.64;100.00
58473;BME280;44775;51.564;5.460;2024-03-25T04:00:48;100463.38;;;1.62;100.00
58473;BME280;44775;51.564;5.460;2024-03-25T04:03:13;100461.09;;;1.58;100.00
58473;BME280;44775;51.564;5.460;2024-03-25T04:05:39;100453.81;;;1.50;100.00
58473;BME280;44775;51.564;5.460;2024-03-25T04:08:04;100459.31;;;1.47;100.00
58473;BME280;44775;51.564;5.460;2024-03-25T04:10:29;100462.06;;;1.46;100.00
58473;BME280;44775;51.564;5.460;2024-03-25T04:12:55;100457.88;;;1.43;100.00
58473;BME280;44775;51.564;5.460;2024-03-25T04:15:21;100456.78;;;1.34;100.00
58473;BME280;44775;51.564;5.460;2024-03-25T04:17:47;100454.50;;;1.30;100.00
58473;BME280;44775;51.564;5.460;2024-03-25T04:20:14;100452.00;;;1.28;100.00
58473;BME280;44775;51.564;5.460;2024-03-25T04:22:43;100446.25;;;1.23;100.00
58473;BME280;44775;51.564;5.460;2024-03-25T04:25:09;100449.25;;;1.18;100.00
58473;BME280;44775;51.564;5.460;2024-03-25T04:27:36;100441.59;;;1.15;100.00
58473;BME280;44775;51.564;5.460;2024-03-25T04:30:02;100448.53;;;1.16;100.00
58473;BME280;44775;51.564;5.460;2024-03-25T04:32:27;100442.66;;;1.13;100.00
58473;BME280;44775;51.564;5.460;2024-03-25T04:34:52;100448.03;;;1.11;100.00
58473;BME280;44775;51.564;5.460;2024-03-25T04:37:17;100444.47;;;1.12;100.00
58473;BME280;44775;51.564;5.460;2024-03-25T04:39:42;100449.72;;;1.12;100.00
58473;BME280;44775;51.564;5.460;2024-03-25T04:42:08;100449.72;;;1.12;100.00
58473;BME280;44775;51.564;5.460;2024-03-25T04:44:33;100449.72;;;1.12;100.00
58473;BME280;44775;51.564;5.460;2024-03-25T04:46:58;100449.13;;;1.09;100.00
58473;BME280;44775;51.564;5.460;2024-03-25T04:49:23;100449.34;;;1.06;100.00
58473;BME280;44775;51.564;5.460;2024-03-25T04:51:48;100452.22;;;1.03;100.00
58473;BME280;44775;51.564;5.460;2024-03-25T04:54:16;100448.75;;;1.02;100.00
58473;BME280;44775;51.564;5.460;2024-03-25T04:56:41;100452.09;;;1.04;100.00
58473;BME280;44775;51.564;5.460;2024-03-25T04:59:07;100453.78;;;1.05;100.00
58473;BME280;44775;51.564;5.460;2024-03-25T05:01:32;100458.06;;;1.06;100.00
58473;BME280;44775;51.564;5.460;2024-03-25T05:03:57;100454.63;;;1.06;100.00
58473;BME280;44775;51.564;5.460;2024-03-25T05:06:22;100452.22;;;1.03;100.00
58473;BME280;44775;51.564;5.460;2024-03-25T05:08:47;100460.72;;;1.06;100.00
58473;BME280;44775;51.564;5.460;2024-03-25T05:11:13;100464.41;;;1.04;100.00
58473;BME280;44775;51.564;5.460;2024-03-25T05:13:38;100463.56;;;1.03;100.00
58473;BME280;44775;51.564;5.460;2024-03-25T05:16:03;100465.38;;;1.03;100.00
58473;BME280;44775;51.564;5.460;2024-03-25T05:18:28;100467.88;;;1.04;100.00
58473;BME280;44775;51.564;5.460;2024-03-25T05:20:54;100464.31;;;1.05;100.00
58473;BME280;44775;51.564;5.460;2024-03-25T05:23:19;100468.84;;;1.03;100.00
58473;BME280;44775;51.564;5.460;2024-03-25T05:25:44;100467.16;;;1.02;100.00
58473;BME280;44775;51.564;5.460;2024-03-25T05:28:09;100466.66;;;0.97;100.00
58473;BME280;44775;51.564;5.460;2024-03-25T05:30:35;100470.25;;;0.96;100.00
58473;BME280;44775;51.564;5.460;2024-03-25T05:33:00;100476.97;;;1.00;100.00
58473;BME280;44775;51.564;5.460;2024-03-25T05:35:25;100479.13;;;0.95;100.00
58473;BME280;44775;51.564;5.460;2024-03-25T05:37:50;100478.16;;;0.96;100.00
58473;BME280;44775;51.564;5.460;2024-03-25T05:40:15;100479.22;;;0.93;100.00
58473;BME280;44775;51.564;5.460;2024-03-25T05:42:44;100474.19;;;0.90;100.00
58473;BME280;44775;51.564;5.460;2024-03-25T05:45:09;100467.38;;;0.88;100.00
58473;BME280;44775;51.564;5.460;2024-03-25T05:47:34;100476.19;;;0.87;100.00
58473;BME280;44775;51.564;5.460;2024-03-25T05:50:00;100469.28;;;0.86;100.00
58473;BME280;44775;51.564;5.460;2024-03-25T05:52:28;100471.16;;;0.84;100.00
58473;BME280;44775;51.564;5.460;2024-03-25T05:54:53;100473.94;;;0.82;100.00
58473;BME280;44775;51.564;5.460;2024-03-25T05:57:18;100469.50;;;0.83;100.00
58473;BME280;44775;51.564;5.460;2024-03-25T05:59:43;100463.06;;;0.87;100.00
58473;BME280;44775;51.564;5.460;2024-03-25T06:02:09;100455.91;;;0.89;100.00
58473;BME280;44775;51.564;5.460;2024-03-25T06:04:34;100455.75;;;0.90;100.00
58473;BME280;44775;51.564;5.460;2024-03-25T06:06:59;100461.84;;;0.91;100.00
58473;BME280;44775;51.564;5.460;2024-03-25T06:09:24;100459.97;;;0.93;100.00
58473;BME280;44775;51.564;5.460;2024-03-25T06:11:49;100458.06;;;0.95;100.00
58473;BME280;44775;51.564;5.460;2024-03-25T06:14:14;100455.31;;;0.97;100.00
58473;BME280;44775;51.564;5.460;2024-03-25T06:16:40;100451.59;;;0.99;100.00
58473;BME280;44775;51.564;5.460;2024-03-25T06:19:06;100450.19;;;1.06;100.00
58473;BME280;44775;51.564;5.460;2024-03-25T06:21:31;100453.06;;;1.14;100.00
58473;BME280;44775;51.564;5.460;2024-03-25T06:23:56;100448.16;;;1.21;100.00
58473;BME280;44775;51.564;5.460;2024-03-25T06:26:21;100449.84;;;1.22;100.00
58473;BME280;44775;51.564;5.460;2024-03-25T06:28:47;100439.94;;;1.26;100.00
58473;BME280;44775;51.564;5.460;2024-03-25T06:31:12;100442.56;;;1.26;100.00
58473;BME280;44775;51.564;5.460;2024-03-25T06:33:56;100442.44;;;1.27;100.00
58473;BME280;44775;51.564;5.460;2024-03-25T06:36:42;100448.78;;;1.36;100.00
58473;BME280;44775;51.564;5.460;2024-03-25T06:39:08;100453.81;;;1.39;100.00
58473;BME280;44775;51.564;5.460;2024-03-25T06:41:33;100447.09;;;1.46;100.00
58473;BME280;44775;51.564;5.460;2024-03-25T06:43:58;100457.03;;;1.54;100.00
58473;BME280;44775;51.564;5.460;2024-03-25T06:46:24;100446.63;;;1.63;100.00
58473;BME280;44775;51.564;5.460;2024-03-25T06:48:49;100446.00;;;1.71;100.00
58473;BME280;44775;51.564;5.460;2024-03-25T06:51:14;100448.88;;;1.79;100.00
58473;BME280;44775;51.564;5.460;2024-03-25T06:53:39;100451.63;;;1.89;100.00
58473;BME280;44775;51.564;5.460;2024-03-25T06:56:04;100446.56;;;1.97;100.00
58473;BME280;44775;51.564;5.460;2024-03-25T06:58:30;100453.94;;;2.15;100.00
58473;BME280;44775;51.564;5.460;2024-03-25T07:00:56;100445.75;;;2.29;100.00
58473;BME280;44775;51.564;5.460;2024-03-25T07:03:21;100447.59;;;2.49;100.00
58473;BME280;44775;51.564;5.460;2024-03-25T07:05:47;100446.84;;;2.79;100.00
58473;BME280;44775;51.564;5.460;2024-03-25T07:08:13;100451.50;;;2.87;100.00
58473;BME280;44775;51.564;5.460;2024-03-25T07:10:41;100449.63;;;2.99;100.00
58473;BME280;44775;51.564;5.460;2024-03-25T07:13:06;100449.09;;;3.05;100.00
58473;BME280;44775;51.564;5.460;2024-03-25T07:15:31;100451.41;;;3.19;100.00
58473;BME280;44775;51.564;5.460;2024-03-25T07:17:57;100447.31;;;3.36;100.00
58473;BME280;44775;51.564;5.460;2024-03-25T07:20:22;100444.31;;;3.50;100.00
58473;BME280;44775;51.564;5.460;2024-03-25T07:22:48;100447.56;;;3.64;100.00
58473;BME280;44775;51.564;5.460;2024-03-25T07:25:13;100453.03;;;3.72;100.00
58473;BME280;44775;51.564;5.460;2024-03-25T07:27:38;100446.38;;;3.87;100.00
58473;BME280;44775;51.564;5.460;2024-03-25T07:30:04;100442.16;;;4.15;100.00
58473;BME280;44775;51.564;5.460;2024-03-25T07:32:31;100442.31;;;4.33;100.00
58473;BME280;44775;51.564;5.460;2024-03-25T07:34:56;100443.00;;;4.74;100.00
58473;BME280;44775;51.564;5.460;2024-03-25T07:37:21;100446.19;;;4.87;100.00
58473;BME280;44775;51.564;5.460;2024-03-25T07:39:47;100443.34;;;5.08;100.00
58473;BME280;44775;51.564;5.460;2024-03-25T07:42:12;100445.94;;;5.37;100.00
58473;BME280;44775;51.564;5.460;2024-03-25T07:44:39;100447.31;;;5.41;100.00
58473;BME280;44775;51.564;5.460;2024-03-25T07:47:04;100445.50;;;5.69;100.00
58473;BME280;44775;51.564;5.460;2024-03-25T07:49:29;100459.94;;;5.95;100.00
58473;BME280;44775;51.564;5.460;2024-03-25T07:51:55;100464.72;;;6.09;100.00
58473;BME280;44775;51.564;5.460;2024-03-25T07:54:20;100459.75;;;6.24;100.00
58473;BME280;44775;51.564;5.460;2024-03-25T07:56:45;100464.00;;;6.34;100.00
58473;BME280;44775;51.564;5.460;2024-03-25T07:59:10;100468.19;;;6.55;100.00
58473;BME280;44775;51.564;5.460;2024-03-25T08:01:35;100470.50;;;6.94;100.00
58473;BME280;44775;51.564;5.460;2024-03-25T08:04:00;100466.94;;;7.03;100.00
58473;BME280;44775;51.564;5.460;2024-03-25T08:06:27;100467.72;;;6.95;100.00
58473;BME280;44775;51.564;5.460;2024-03-25T08:08:54;100472.81;;;7.15;100.00
58473;BME280;44775;51.564;5.460;2024-03-25T08:11:20;100470.78;;;7.34;100.00
58473;BME280;44775;51.564;5.460;2024-03-25T08:13:45;100470.78;;;7.61;100.00
58473;BME280;44775;51.564;5.460;2024-03-25T08:16:11;100468.53;;;7.82;100.00
58473;BME280;44775;51.564;5.460;2024-03-25T08:18:36;100477.59;;;8.05;100.00
58473;BME280;44775;51.564;5.460;2024-03-25T08:21:01;100483.06;;;7.96;100.00
58473;BME280;44775;51.564;5.460;2024-03-25T08:23:27;100486.53;;;7.88;100.00
58473;BME280;44775;51.564;5.460;2024-03-25T08:25:52;100476.25;;;8.01;100.00
58473;BME280;44775;51.564;5.460;2024-03-25T08:28:17;100478.59;;;8.55;100.00
58473;BME280;44775;51.564;5.460;2024-03-25T08:30:42;100485.94;;;8.61;100.00
58473;BME280;44775;51.564;5.460;2024-03-25T08:33:07;100475.63;;;8.74;100.00
58473;BME280;44775;51.564;5.460;2024-03-25T08:35:33;100473.63;;;8.85;100.00
58473;BME280;44775;51.564;5.460;2024-03-25T08:37:58;100474.63;;;9.08;100.00
58473;BME280;44775;51.564;5.460;2024-03-25T08:40:23;100474.25;;;9.36;100.00
58473;BME280;44775;51.564;5.460;2024-03-25T08:42:48;100473.31;;;9.68;100.00
58473;BME280;44775;51.564;5.460;2024-03-25T08:45:13;100475.66;;;10.02;100.00
58473;BME280;44775;51.564;5.460;2024-03-25T08:47:39;100477.72;;;10.31;100.00
58473;BME280;44775;51.564;5.460;2024-03-25T08:50:05;100471.25;;;10.26;100.00
58473;BME280;44775;51.564;5.460;2024-03-25T08:52:31;100468.53;;;10.34;100.00
58473;BME280;44775;51.564;5.460;2024-03-25T08:54:56;100471.59;;;10.77;100.00
58473;BME280;44775;51.564;5.460;2024-03-25T08:57:21;100479.16;;;11.11;100.00
58473;BME280;44775;51.564;5.460;2024-03-25T08:59:46;100467.41;;;10.97;100.00
58473;BME280;44775;51.564;5.460;2024-03-25T09:02:11;100473.97;;;10.72;100.00
58473;BME280;44775;51.564;5.460;2024-03-25T09:04:37;100468.97;;;10.69;100.00
58473;BME280;44775;51.564;5.460;2024-03-25T09:07:02;100472.75;;;10.51;100.00
58473;BME280;44775;51.564;5.460;2024-03-25T09:09:28;100467.47;;;10.89;100.00
58473;BME280;44775;51.564;5.460;2024-03-25T09:12:11;100462.09;;;11.27;100.00
58473;BME280;44775;51.564;5.460;2024-03-25T09:14:37;100463.03;;;11.64;100.00
58473;BME280;44775;51.564;5.460;2024-03-25T09:17:03;100469.97;;;12.02;100.00
58473;BME280;44775;51.564;5.460;2024-03-25T09:19:31;100465.72;;;12.44;100.00
58473;BME280;44775;51.564;5.460;2024-03-25T09:21:56;100455.00;;;12.66;100.00
58473;BME280;44775;51.564;5.460;2024-03-25T09:24:21;100448.66;;;12.31;100.00
58473;BME280;44775;51.564;5.460;2024-03-25T09:26:49;100451.41;;;12.16;100.00
58473;BME280;44775;51.564;5.460;2024-03-25T09:29:14;100454.69;;;12.18;100.00
58473;BME280;44775;51.564;5.460;2024-03-25T09:31:39;100446.69;;;12.61;100.00
58473;BME280;44775;51.564;5.460;2024-03-25T09:34:05;100443.59;;;12.21;100.00
58473;BME280;44775;51.564;5.460;2024-03-25T09:36:30;100441.78;;;12.64;100.00
58473;BME280;44775;51.564;5.460;2024-03-25T09:38:55;100434.56;;;12.22;100.00
58473;BME280;44775;51.564;5.460;2024-03-25T09:41:20;100424.72;;;12.72;100.00
58473;BME280;44775;51.564;5.460;2024-03-25T09:43:54;100425.69;;;12.64;100.00
58473;BME280;44775;51.564;5.460;2024-03-25T09:46:20;100429.72;;;12.75;100.00
58473;BME280;44775;51.564;5.460;2024-03-25T09:48:45;100427.69;;;12.77;100.00
58473;BME280;44775;51.564;5.460;2024-03-25T09:51:11;100422.81;;;12.87;100.00
58473;BME280;44775;51.564;5.460;2024-03-25T09:53:36;100414.38;;;13.18;100.00
58473;BME280;44775;51.564;5.460;2024-03-25T09:56:02;100414.22;;;12.98;100.00
58473;BME280;44775;51.564;5.460;2024-03-25T09:58:27;100405.75;;;13.23;100.00
58473;BME280;44775;51.564;5.460;2024-03-25T10:00:53;100413.16;;;13.90;100.00
58473;BME280;44775;51.564;5.460;2024-03-25T10:03:20;100408.38;;;13.92;100.00
58473;BME280;44775;51.564;5.460;2024-03-25T10:05:45;100416.94;;;14.16;100.00
58473;BME280;44775;51.564;5.460;2024-03-25T10:08:10;100404.13;;;14.18;100.00
58473;BME280;44775;51.564;5.460;2024-03-25T10:10:35;100409.97;;;13.80;100.00
58473;BME280;44775;51.564;5.460;2024-03-25T10:13:03;100400.69;;;13.83;100.00
58473;BME280;44775;51.564;5.460;2024-03-25T10:15:28;100402.88;;;14.21;94.61
58473;BME280;44775;51.564;5.460;2024-03-25T10:17:53;100406.00;;;14.24;94.36
58473;BME280;44775;51.564;5.460;2024-03-25T10:20:19;100397.56;;;14.47;100.00
58473;BME280;44775;51.564;5.460;2024-03-25T10:22:44;100398.84;;;14.91;100.00
58473;BME280;44775;51.564;5.460;2024-03-25T10:25:23;100399.63;;;15.18;90.97
58473;BME280;44775;51.564;5.460;2024-03-25T10:27:55;100406.84;;;15.44;93.67
58473;BME280;44775;51.564;5.460;2024-03-25T10:30:20;100401.75;;;15.81;93.53
58473;BME280;44775;51.564;5.460;2024-03-25T10:32:46;100398.53;;;15.52;90.85
58473;BME280;44775;51.564;5.460;2024-03-25T10:35:11;100394.56;;;15.55;95.75
58473;BME280;44775;51.564;5.460;2024-03-25T10:37:38;100394.81;;;15.53;87.23
58473;BME280;44775;51.564;5.460;2024-03-25T10:40:03;100393.63;;;15.36;85.57
58473;BME280;44775;51.564;5.460;2024-03-25T10:42:29;100381.22;;;15.08;83.44
58473;BME280;44775;51.564;5.460;2024-03-25T10:44:55;100376.06;;;14.94;89.02
58473;BME280;44775;51.564;5.460;2024-03-25T10:47:24;100378.75;;;15.14;85.87
58473;BME280;44775;51.564;5.460;2024-03-25T10:49:57;100377.56;;;15.68;83.06
58473;BME280;44775;51.564;5.460;2024-03-25T10:52:24;100373.81;;;15.62;79.39
58473;BME280;44775;51.564;5.460;2024-03-25T10:54:49;100370.44;;;15.15;83.61
58473;BME280;44775;51.564;5.460;2024-03-25T10:57:14;100366.16;;;14.87;85.89
58473;BME280;44775;51.564;5.460;2024-03-25T10:59:41;100362.84;;;14.85;83.84
58473;BME280;44775;51.564;5.460;2024-03-25T11:02:08;100365.91;;;15.22;84.91
58473;BME280;44775;51.564;5.460;2024-03-25T11:04:33;100364.16;;;15.48;80.31
58473;BME280;44775;51.564;5.460;2024-03-25T11:07:12;100361.00;;;15.57;79.27
58473;BME280;44775;51.564;5.460;2024-03-25T11:09:37;100347.28;;;15.72;80.72
58473;BME280;44775;51.564;5.460;2024-03-25T11:12:03;100360.03;;;15.97;75.90
58473;BME280;44775;51.564;5.460;2024-03-25T11:14:28;100357.03;;;16.12;80.34
58473;BME280;44775;51.564;5.460;2024-03-25T11:16:54;100355.47;;;16.29;74.31
58473;BME280;44775;51.564;5.460;2024-03-25T11:19:19;100350.53;;;16.51;75.34
58473;BME280;44775;51.564;5.460;2024-03-25T11:21:45;100347.31;;;16.67;71.49
58473;BME280;44775;51.564;5.460;2024-03-25T11:24:11;100342.34;;;16.64;71.46
58473;BME280;44775;51.564;5.460;2024-03-25T11:26:40;100343.66;;;17.05;72.78
58473;BME280;44775;51.564;5.460;2024-03-25T11:29:06;100344.41;;;17.12;69.80
58473;BME280;44775;51.564;5.460;2024-03-25T11:31:32;100340.50;;;17.08;72.04
58473;BME280;44775;51.564;5.460;2024-03-25T11:33:58;100342.03;;;16.97;67.46
58473;BME280;44775;51.564;5.460;2024-03-25T11:36:28;100337.97;;;16.13;68.33
58473;BME280;44775;51.564;5.460;2024-03-25T11:38:59;100327.88;;;15.57;73.84
58473;BME280;44775;51.564;5.460;2024-03-25T11:41:24;100324.84;;;15.33;79.76
58473;BME280;44775;51.564;5.460;2024-03-25T11:43:50;100317.31;;;14.84;77.67
58473;BME280;44775;51.564;5.460;2024-03-25T11:46:18;100314.25;;;14.54;81.20
58473;BME280;44775;51.564;5.460;2024-03-25T11:48:44;100301.41;;;14.36;80.61
58473;BME280;44775;51.564;5.460;2024-03-25T11:51:11;100305.72;;;14.10;83.21
58473;BME280;44775;51.564;5.460;2024-03-25T11:53:36;100301.81;;;14.26;82.13
58473;BME280;44775;51.564;5.460;2024-03-25T11:56:01;100296.19;;;14.94;81.29
58473;BME280;44775;51.564;5.460;2024-03-25T11:58:26;100295.34;;;15.52;73.34
58473;BME280;44775;51.564;5.460;2024-03-25T12:00:52;100290.94;;;16.34;68.34
58473;BME280;44775;51.564;5.460;2024-03-25T12:03:17;100281.06;;;16.21;71.57
58473;BME280;44775;51.564;5.460;2024-03-25T12:05:45;100284.97;;;16.25;68.44
58473;BME280;44775;51.564;5.460;2024-03-25T12:08:11;100277.19;;;16.17;72.04
58473;BME280;44775;51.564;5.460;2024-03-25T12:10:37;100270.84;;;15.73;72.91
58473;BME280;44775;51.564;5.460;2024-03-25T12:13:21;100264.16;;;15.38;74.30
58473;BME280;44775;51.564;5.460;2024-03-25T12:15:47;100253.47;;;15.18;76.70
58473;BME280;44775;51.564;5.460;2024-03-25T12:18:13;100237.66;;;15.34;76.60
58473;BME280;44775;51.564;5.460;2024-03-25T12:20:38;100234.50;;;15.82;75.78
58473;BME280;44775;51.564;5.460;2024-03-25T12:23:04;100230.06;;;15.95;72.11
58473;BME280;44775;51.564;5.460;2024-03-25T12:25:29;100230.25;;;15.68;73.21
58473;BME280;44775;51.564;5.460;2024-03-25T12:27:54;100237.88;;;15.33;72.96
58473;BME280;44775;51.564;5.460;2024-03-25T12:30:19;100235.41;;;15.31;72.38
58473;BME280;44775;51.564;5.460;2024-03-25T12:32:45;100238.94;;;15.25;70.32
58473;BME280;44775;51.564;5.460;2024-03-25T12:35:13;100242.56;;;15.06;73.87
58473;BME280;44775;51.564;5.460;2024-03-25T12:37:40;100232.84;;;14.92;74.09
58473;BME280;44775;51.564;5.460;2024-03-25T12:40:09;100231.28;;;14.71;75.48